Terminal Aerodrome Forecast
Issued by NWS

Home | Current Version | Previous Version | Text Only | Print | Product List | Glossary On
Versions: 1 2 3 4 5 6 7 8 9 10 11 12 13 14
000
FTUS45 KBOI 181748
TAFMYL
TAF
KMYL 181748Z 1818/1918 VRB04KT 1SM -SN BR BKN005 OVC010
      TEMPO 1821/1824 1/4SM SN FG OVC001
     FM190600 16007KT 1/2SM -SN FG OVC015=

USA.gov is the U.S. government's official web portal to all federal, state and local government web resources and services.